Time;durP1;ratioP1;P1;durP2;ratioP2;P2;SDS_P1;SDS_P2;PMS_P1;PMS_P2;Temp;Humidity;BMP_temperature;BMP_pressure;BME280_temperature;BME280_humidity;BME280_pressure;Samples;Min_cycle;Max_cycle;Signal;HPM_P1;HPM_P2
2022/02/07 00:01:32;;;;;;;0.52;0.10;;;1.50;99.90;;;;;;5053524;28;20102;-72
2022/02/07 00:03:54;;;;;;;0.50;0.10;;;1.50;99.90;;;;;;5034111;28;20049;-74
2022/02/07 00:06:20;;;;;;;0.00;0.00;;;1.50;99.90;;;;;;5034050;28;20470;-72
2022/02/07 00:08:46;;;;;;;0.10;0.10;;;1.50;99.90;;;;;;5033133;28;20061;-74
2022/02/07 00:11:13;;;;;;;0.32;0.05;;;1.50;99.90;;;;;;5032825;28;20499;-72
2022/02/07 00:13:39;;;;;;;0.15;0.10;;;1.50;99.90;;;;;;5033986;28;20112;-71
2022/02/07 00:16:05;;;;;;;0.82;0.00;;;1.50;99.90;;;;;;5052604;28;20497;-71
2022/02/07 00:18:32;;;;;;;1.05;0.10;;;1.60;99.90;;;;;;5053733;28;20027;-71
2022/02/07 00:20:58;;;;;;;0.43;0.00;;;1.60;99.90;;;;;;5053090;28;20036;-72
2022/02/07 00:23:24;;;;;;;1.15;0.20;;;1.50;99.90;;;;;;5053235;28;20033;-72
2022/02/07 00:25:50;;;;;;;0.00;0.00;;;1.60;99.90;;;;;;5052643;28;20382;-72
2022/02/07 00:28:15;;;;;;;0.43;0.10;;;1.60;99.90;;;;;;5053228;28;20517;-71
2022/02/07 00:30:41;;;;;;;0.95;0.00;;;1.60;99.90;;;;;;5053595;28;20120;-71
2022/02/07 00:33:07;;;;;;;1.63;0.15;;;1.70;99.90;;;;;;5052705;28;20481;-72
2022/02/07 00:35:33;;;;;;;1.02;0.17;;;1.80;99.90;;;;;;5053140;28;20035;-72
2022/02/07 00:38:04;;;;;;;0.22;0.00;;;1.90;99.90;;;;;;5053019;28;20037;-72
2022/02/07 00:40:44;;;;;;;0.20;0.10;;;1.90;99.90;;;;;;5053098;28;20075;-72
2022/02/07 00:43:15;;;;;;;4.22;0.20;;;1.90;99.90;;;;;;5052368;28;20032;-72
2022/02/07 00:48:08;;;;;;;0.63;0.10;;;2.00;99.90;;;;;;5052276;28;20309;-72
2022/02/07 00:50:36;;;;;;;0.47;0.10;;;2.00;99.90;;;;;;5052842;28;20063;-72
2022/02/07 00:53:03;;;;;;;1.48;0.13;;;2.00;99.90;;;;;;5052582;28;20411;-71
2022/02/07 00:55:29;;;;;;;2.47;0.20;;;2.10;99.90;;;;;;5052151;28;20496;-71
2022/02/07 00:57:54;;;;;;;0.63;0.20;;;2.10;99.90;;;;;;5052427;28;20021;-71
2022/02/07 01:00:21;;;;;;;4.18;0.22;;;2.00;99.90;;;;;;5053351;28;20032;-71
2022/02/07 01:02:46;;;;;;;0.20;0.20;;;2.10;99.90;;;;;;5053017;28;20029;-71
2022/02/07 01:05:13;;;;;;;0.55;0.20;;;2.00;99.90;;;;;;5052675;28;20382;-71
2022/02/07 01:07:42;;;;;;;0.40;0.10;;;2.00;99.90;;;;;;5052918;28;20090;-72
2022/02/07 01:10:07;;;;;;;1.10;0.20;;;2.10;99.90;;;;;;5052000;28;20196;-71
2022/02/07 01:15:17;;;;;;;0.15;0.00;;;2.00;99.90;;;;;;5052230;28;20115;-71
2022/02/07 01:23:19;;;;;;;0.30;0.03;;;1.90;99.90;;;;;;5051568;28;20199;-71
2022/02/07 01:55:40;;;;;;;0.98;0.03;;;2.30;99.90;;;;;;5050980;28;20057;-71
2022/02/07 01:58:07;;;;;;;1.00;0.10;;;2.40;99.90;;;;;;5051806;28;20100;-71
2022/02/07 02:00:35;;;;;;;1.85;0.28;;;2.30;99.90;;;;;;5052084;28;20111;-71
2022/02/07 02:03:01;;;;;;;2.33;1.27;;;2.40;99.90;;;;;;5051021;28;20060;-72
2022/02/07 02:05:31;;;;;;;0.95;0.15;;;2.40;99.90;;;;;;5051857;28;20463;-72
2022/02/07 02:07:56;;;;;;;2.35;0.20;;;2.70;99.90;;;;;;5051573;28;20524;-72
2022/02/07 02:10:22;;;;;;;2.03;0.20;;;2.70;99.90;;;;;;5052295;28;20033;-71
2022/02/07 02:12:59;;;;;;;2.20;0.30;;;2.80;99.90;;;;;;5051766;28;20388;-71
2022/02/07 02:37:48;;;;;;;2.58;0.10;;;2.90;99.90;;;;;;5055530;28;20043;-72
2022/02/07 02:45:36;;;;;;;0.82;0.30;;;3.00;99.90;;;;;;5055307;28;20099;-72
2022/02/07 02:48:08;;;;;;;0.32;0.32;;;3.00;99.90;;;;;;5054967;28;20082;-72
2022/02/07 02:50:35;;;;;;;0.57;0.20;;;3.10;99.90;;;;;;5055379;28;20036;-72
2022/02/07 02:53:14;;;;;;;5.18;0.47;;;3.00;99.90;;;;;;5054484;28;20037;-72
2022/02/07 02:55:41;;;;;;;0.60;0.30;;;2.80;99.90;;;;;;5054891;28;20033;-72
2022/02/07 02:58:10;;;;;;;1.38;0.20;;;2.70;99.90;;;;;;5054526;28;20036;-72
2022/02/07 03:00:38;;;;;;;5.10;0.40;;;2.70;99.90;;;;;;5054969;28;20029;-72
2022/02/07 03:03:04;;;;;;;1.65;0.20;;;2.50;99.90;;;;;;5054418;28;20037;-72
2022/02/07 03:05:30;;;;;;;3.45;0.50;;;2.40;99.90;;;;;;5055276;28;20024;-72
2022/02/07 03:07:56;;;;;;;2.88;0.43;;;2.20;99.90;;;;;;5054577;28;20036;-72
2022/02/07 03:10:25;;;;;;;2.08;0.30;;;2.20;99.90;;;;;;5055377;28;20029;-72
2022/02/07 03:18:29;;;;;;;3.45;0.85;;;2.20;99.90;;;;;;5055131;28;20496;-71
2022/02/07 03:20:55;;;;;;;3.50;0.60;;;2.50;99.90;;;;;;5053761;28;20037;-72
2022/02/07 03:23:22;;;;;;;4.00;0.50;;;2.50;99.90;;;;;;5054656;28;20057;-72
2022/02/07 03:25:48;;;;;;;4.40;0.60;;;2.50;99.90;;;;;;5054530;28;20512;-72
2022/02/07 03:28:14;;;;;;;2.38;0.43;;;2.60;99.90;;;;;;5054101;28;20033;-72
2022/02/07 03:30:40;;;;;;;9.40;2.60;;;2.50;99.90;;;;;;5054790;28;20063;-72
2022/02/07 03:33:07;;;;;;;3.97;0.50;;;2.40;99.90;;;;;;5053866;28;20018;-72
2022/02/07 03:35:34;;;;;;;3.95;0.60;;;2.30;99.90;;;;;;5054656;28;20075;-72
2022/02/07 03:38:00;;;;;;;6.65;0.70;;;2.30;99.90;;;;;;5053606;28;20029;-72
2022/02/07 03:40:26;;;;;;;4.97;0.70;;;2.40;99.90;;;;;;5054589;28;20040;-71
2022/02/07 03:42:52;;;;;;;2.83;0.70;;;2.60;99.90;;;;;;5053744;28;20028;-71
2022/02/07 03:45:18;;;;;;;1.98;0.20;;;2.80;99.90;;;;;;5053755;28;20051;-70
2022/02/07 03:47:44;;;;;;;0.90;0.10;;;2.40;99.90;;;;;;5052820;28;20029;-72
2022/02/07 03:50:10;;;;;;;0.08;0.03;;;1.60;99.90;;;;;;5052466;28;20059;-72
2022/02/07 03:52:36;;;;;;;2.95;0.10;;;1.40;99.90;;;;;;5052469;28;20044;-73
2022/02/07 03:55:03;;;;;;;1.60;0.15;;;1.30;99.90;;;;;;5052122;28;20478;-70
2022/02/07 03:57:28;;;;;;;1.45;0.17;;;1.10;99.90;;;;;;5052785;28;20045;-71
2022/02/07 03:59:54;;;;;;;2.40;0.10;;;1.10;99.90;;;;;;5051711;28;20025;-72
2022/02/07 04:02:20;;;;;;;3.38;0.10;;;1.00;99.90;;;;;;5052422;28;20021;-71
2022/02/07 04:04:52;;;;;;;0.65;0.17;;;1.00;99.90;;;;;;5051122;28;20442;-71
2022/02/07 04:07:18;;;;;;;1.23;0.20;;;1.00;99.90;;;;;;5050142;28;20371;-71
2022/02/07 04:09:48;;;;;;;0.15;0.10;;;0.90;99.90;;;;;;5052362;28;20348;-71
2022/02/07 04:12:19;;;;;;;1.60;0.25;;;0.90;99.90;;;;;;5051978;28;20025;-70
2022/02/07 04:14:45;;;;;;;3.15;0.30;;;0.80;99.90;;;;;;5051913;28;20029;-70
2022/02/07 04:17:11;;;;;;;1.05;0.20;;;0.80;99.90;;;;;;5051415;28;20550;-71
2022/02/07 04:19:39;;;;;;;2.22;0.40;;;0.80;99.90;;;;;;5049731;28;20020;-71
2022/02/07 04:22:07;;;;;;;0.73;0.17;;;0.70;99.90;;;;;;5051630;28;20036;-71
2022/02/07 04:24:34;;;;;;;1.88;0.20;;;0.60;99.90;;;;;;5052107;28;20033;-72
2022/02/07 04:27:00;;;;;;;1.48;0.30;;;0.70;99.90;;;;;;5052270;28;20055;-71
2022/02/07 04:29:25;;;;;;;2.80;0.45;;;0.80;99.90;;;;;;5053126;28;20057;-71
2022/02/07 04:31:51;;;;;;;2.92;0.17;;;0.70;99.90;;;;;;5053296;28;20033;-72
2022/02/07 04:34:17;;;;;;;1.52;0.28;;;0.80;99.90;;;;;;5052619;28;20036;-71
2022/02/07 04:36:50;;;;;;;0.77;0.20;;;0.80;99.90;;;;;;5053312;28;20033;-72
2022/02/07 04:39:16;;;;;;;1.95;0.20;;;0.80;99.90;;;;;;5052883;28;20029;-70
2022/02/07 04:41:42;;;;;;;3.83;0.90;;;0.70;99.90;;;;;;5052951;28;20032;-71
2022/02/07 04:44:13;;;;;;;2.47;0.28;;;0.70;99.90;;;;;;5052161;28;20033;-70
2022/02/07 04:47:00;;;;;;;3.92;0.25;;;0.70;99.90;;;;;;5053333;28;20116;-70
2022/02/07 04:49:58;;;;;;;2.15;0.20;;;0.80;99.90;;;;;;5052998;28;20454;-70
2022/02/07 05:00:10;;;;;;;2.83;0.43;;;0.80;99.90;;;;;;5032150;28;20025;-69
2022/02/07 05:15:53;;;;;;;6.95;0.80;;;0.70;99.90;;;;;;5032434;28;20032;-71
2022/02/07 05:18:20;;;;;;;7.45;0.93;;;0.70;99.90;;;;;;5032362;28;20382;-71
2022/02/07 05:20:46;;;;;;;12.95;1.40;;;0.70;99.90;;;;;;5034924;28;20025;-71
2022/02/07 05:23:12;;;;;;;5.93;0.70;;;0.80;99.90;;;;;;5051875;28;20039;-71
2022/02/07 05:25:38;;;;;;;8.35;0.88;;;0.90;99.90;;;;;;5052671;28;20033;-71
2022/02/07 05:28:04;;;;;;;12.68;0.88;;;0.90;99.90;;;;;;5051637;28;20025;-71
2022/02/07 05:30:30;;;;;;;10.52;0.93;;;0.90;99.90;;;;;;5052540;28;20116;-70
2022/02/07 05:32:56;;;;;;;6.53;0.70;;;0.90;99.90;;;;;;5051682;28;20104;-71
2022/02/07 05:35:21;;;;;;;5.03;0.90;;;0.70;99.90;;;;;;5052032;28;20025;-71
2022/02/07 05:37:47;;;;;;;6.50;0.88;;;0.70;99.90;;;;;;5052482;28;20099;-71
2022/02/07 05:40:25;;;;;;;8.75;0.77;;;0.70;99.90;;;;;;5051180;28;20036;-71
2022/02/07 05:42:51;;;;;;;4.50;0.70;;;0.60;99.90;;;;;;5051956;28;20029;-71
2022/02/07 05:45:16;;;;;;;6.47;0.60;;;0.60;99.90;;;;;;5051511;28;20035;-71
2022/02/07 05:47:42;;;;;;;9.32;0.70;;;0.80;99.90;;;;;;5052300;28;20454;-71
2022/02/07 05:50:08;;;;;;;6.28;0.60;;;0.90;99.90;;;;;;5051111;28;20471;-71
2022/02/07 05:52:33;;;;;;;5.50;0.68;;;0.90;99.90;;;;;;5052058;28;20033;-71
2022/02/07 05:54:59;;;;;;;7.03;1.00;;;0.90;99.90;;;;;;5051183;28;20363;-71
2022/02/07 05:57:26;;;;;;;7.53;0.90;;;1.00;99.90;;;;;;5051722;28;20052;-71
2022/02/07 05:59:51;;;;;;;5.05;0.40;;;1.00;99.90;;;;;;5051733;28;20502;-72
2022/02/07 06:02:17;;;;;;;8.05;0.95;;;1.00;99.90;;;;;;5051055;28;20036;-72
2022/02/07 06:04:43;;;;;;;5.60;0.60;;;0.90;99.90;;;;;;5051850;28;20032;-72
2022/02/07 06:07:08;;;;;;;8.88;1.58;;;1.00;99.90;;;;;;5051551;28;20063;-72
2022/02/07 06:09:34;;;;;;;5.95;0.93;;;1.10;99.90;;;;;;5054224;28;20028;-71
2022/02/07 06:12:00;;;;;;;6.88;0.80;;;1.00;99.90;;;;;;5055428;28;20059;-72
2022/02/07 06:14:25;;;;;;;10.35;1.10;;;1.00;99.90;;;;;;5055934;28;20116;-71
2022/02/07 06:16:51;;;;;;;6.68;0.80;;;1.00;99.90;;;;;;5056338;28;20094;-70
2022/02/07 06:19:17;;;;;;;5.68;0.50;;;0.90;99.90;;;;;;5055030;28;20059;-71
2022/02/07 06:21:43;;;;;;;5.45;0.57;;;1.00;99.90;;;;;;5055803;28;20531;-71
2022/02/07 06:24:09;;;;;;;12.65;2.38;;;1.20;99.90;;;;;;5055447;28;20108;-72
2022/02/07 06:26:34;;;;;;;6.90;0.93;;;1.30;99.90;;;;;;5055873;28;20025;-71
2022/02/07 06:29:01;;;;;;;5.65;0.95;;;1.30;99.90;;;;;;5054933;28;20044;-71
2022/02/07 06:31:27;;;;;;;8.73;1.30;;;1.30;99.90;;;;;;5055460;28;20040;-72
2022/02/07 06:33:53;;;;;;;7.50;0.82;;;1.40;99.90;;;;;;5055403;28;20462;-73
2022/02/07 06:36:20;;;;;;;7.57;1.27;;;1.30;99.90;;;;;;5055038;28;20033;-72
2022/02/07 06:38:47;;;;;;;7.53;0.80;;;1.40;99.90;;;;;;5055351;28;20375;-71
2022/02/07 06:41:13;;;;;;;8.50;1.00;;;1.40;99.90;;;;;;5054572;28;20029;-72
2022/02/07 06:43:38;;;;;;;9.75;1.98;;;1.40;99.90;;;;;;5055805;28;20048;-73
2022/02/07 06:46:04;;;;;;;8.48;1.20;;;1.50;99.90;;;;;;5054892;28;20028;-72
2022/02/07 06:48:30;;;;;;;4.97;0.70;;;1.60;99.90;;;;;;5055186;28;20107;-73
2022/02/07 06:50:55;;;;;;;3.45;0.73;;;1.70;99.90;;;;;;5055340;28;20060;-71
2022/02/07 06:53:21;;;;;;;5.38;0.65;;;1.60;99.90;;;;;;5054756;28;20029;-69
2022/02/07 06:55:48;;;;;;;8.07;0.90;;;1.70;99.90;;;;;;5054983;28;20120;-74
2022/02/07 06:58:13;;;;;;;5.85;0.80;;;1.90;99.90;;;;;;5054613;28;20421;-76
2022/02/07 07:00:39;;;;;;;5.97;0.65;;;1.80;99.90;;;;;;5054916;28;20029;-74
2022/02/07 07:03:05;;;;;;;6.32;1.00;;;1.90;99.90;;;;;;5053776;28;20041;-73
2022/02/07 07:05:30;;;;;;;8.05;1.27;;;1.80;99.90;;;;;;5054834;28;20029;-73
2022/02/07 07:07:56;;;;;;;7.57;0.90;;;1.80;99.90;;;;;;5054830;28;20025;-72
2022/02/07 07:10:22;;;;;;;12.15;0.93;;;1.90;99.90;;;;;;5054358;28;20375;-72
2022/02/07 07:12:56;;;;;;;8.88;0.80;;;1.90;99.90;;;;;;5054828;28;20064;-72
2022/02/07 07:15:30;;;;;;;11.05;1.15;;;2.00;99.90;;;;;;5053950;28;20025;-72
2022/02/07 07:17:56;;;;;;;5.53;0.95;;;2.00;99.90;;;;;;5054866;28;20026;-71
2022/02/07 07:20:22;;;;;;;8.15;0.98;;;1.90;99.90;;;;;;5053525;28;20064;-72
2022/02/07 07:22:47;;;;;;;7.55;1.42;;;1.90;99.90;;;;;;5053716;28;20037;-70
2022/02/07 07:25:16;;;;;;;10.18;1.20;;;2.00;99.90;;;;;;5054144;28;20040;-71
2022/02/07 07:30:26;;;;;;;10.18;1.20;;;1.90;99.90;;;;;;5054411;28;20025;-70
2022/02/07 07:32:57;;;;;;;3.60;0.90;;;2.00;99.90;;;;;;5054135;28;20033;-71
2022/02/07 07:35:22;;;;;;;7.45;0.82;;;2.00;99.90;;;;;;5053835;28;20024;-70
2022/02/07 07:37:48;;;;;;;5.28;1.10;;;2.00;99.90;;;;;;5054179;28;20424;-72
2022/02/07 07:40:13;;;;;;;7.90;1.38;;;1.90;99.90;;;;;;5053725;28;20523;-72
2022/02/07 07:42:39;;;;;;;5.85;1.02;;;2.00;99.90;;;;;;5054087;28;20032;-70
2022/02/07 07:45:06;;;;;;;6.97;1.40;;;1.80;99.90;;;;;;5053906;28;20108;-71
2022/02/07 07:47:32;;;;;;;5.85;0.90;;;1.80;99.90;;;;;;5054261;28;20064;-71
2022/02/07 07:50:13;;;;;;;5.60;1.40;;;1.80;99.90;;;;;;5054120;28;20037;-71
2022/02/07 07:52:59;;;;;;;12.63;1.02;;;1.80;99.90;;;;;;5054201;28;20036;-71
2022/02/07 08:03:40;;;;;;;6.60;1.15;;;2.00;99.90;;;;;;5053828;28;20048;-70
2022/02/07 08:06:12;;;;;;;4.93;1.00;;;2.00;99.90;;;;;;5053347;28;20021;-71
2022/02/07 08:08:46;;;;;;;11.98;1.15;;;2.10;99.90;;;;;;5052934;28;20039;-70
2022/02/07 08:11:15;;;;;;;7.82;1.10;;;2.20;99.90;;;;;;5052161;28;20116;-71
2022/02/07 08:13:42;;;;;;;3.70;0.80;;;2.20;99.90;;;;;;5052481;28;20031;-71
2022/02/07 08:16:09;;;;;;;3.63;0.90;;;2.30;99.90;;;;;;5052996;28;20031;-71
2022/02/07 08:18:34;;;;;;;7.03;1.40;;;2.20;99.90;;;;;;5053650;28;20025;-74
2022/02/07 08:21:00;;;;;;;5.63;1.10;;;2.30;99.90;;;;;;5053351;28;20104;-70
2022/02/07 08:23:26;;;;;;;11.35;1.30;;;2.30;99.90;;;;;;5053701;28;20083;-69
2022/02/07 08:25:52;;;;;;;7.80;1.05;;;2.30;99.90;;;;;;5053204;28;20394;-71
2022/02/07 08:28:19;;;;;;;8.75;1.17;;;2.40;99.90;;;;;;5052700;28;20063;-72
2022/02/07 08:30:44;;;;;;;14.00;1.42;;;2.40;99.90;;;;;;5052202;28;20055;-70
2022/02/07 08:33:10;;;;;;;8.45;1.15;;;2.50;99.90;;;;;;5052876;28;20078;-70
2022/02/07 08:35:36;;;;;;;5.78;1.10;;;2.50;99.90;;;;;;5052818;28;20386;-72
2022/02/07 08:38:02;;;;;;;8.00;0.90;;;2.60;99.90;;;;;;5052678;28;20433;-73
2022/02/07 08:40:29;;;;;;;7.22;1.08;;;2.70;99.90;;;;;;5053132;28;20025;-71
2022/02/07 08:42:55;;;;;;;8.95;1.08;;;2.70;99.90;;;;;;5052975;28;20091;-70
2022/02/07 08:45:22;;;;;;;7.13;1.13;;;2.70;99.90;;;;;;5052060;28;20561;-72
2022/02/07 08:47:48;;;;;;;5.85;1.10;;;2.80;99.90;;;;;;5052565;28;20033;-72
2022/02/07 08:50:14;;;;;;;8.32;1.52;;;2.80;99.90;;;;;;5052533;28;20021;-72
2022/02/07 08:52:43;;;;;;;9.43;1.10;;;2.80;99.90;;;;;;5052725;28;20047;-72
2022/02/07 08:55:14;;;;;;;7.97;0.98;;;2.90;99.90;;;;;;5052148;28;20492;-72
2022/02/07 08:57:44;;;;;;;5.25;0.98;;;3.10;99.90;;;;;;5052453;28;20051;-71
2022/02/07 09:05:39;;;;;;;11.40;1.40;;;3.50;99.90;;;;;;5052077;28;20434;-71
2022/02/07 09:10:36;;;;;;;9.20;1.00;;;3.60;99.90;;;;;;5052813;28;20321;-72
2022/02/07 09:13:01;;;;;;;10.23;0.77;;;3.70;99.90;;;;;;5052186;28;20033;-72
2022/02/07 09:15:41;;;;;;;3.65;0.85;;;3.80;99.90;;;;;;5051865;28;20083;-71
2022/02/07 09:18:10;;;;;;;6.15;1.23;;;3.80;99.90;;;;;;5051711;28;20112;-72
2022/02/07 09:20:37;;;;;;;7.15;1.00;;;3.90;99.90;;;;;;5052612;28;20104;-72
2022/02/07 09:23:07;;;;;;;5.63;1.25;;;3.90;99.90;;;;;;5052167;28;20115;-73
2022/02/07 09:25:33;;;;;;;9.20;1.30;;;4.00;99.90;;;;;;5052343;28;20029;-72
2022/02/07 09:27:59;;;;;;;8.20;1.10;;;4.10;99.90;;;;;;5051700;28;20047;-72
2022/02/07 09:30:26;;;;;;;8.93;1.45;;;4.10;99.90;;;;;;5051824;28;20056;-72
2022/02/07 09:32:51;;;;;;;8.05;1.23;;;4.10;99.90;;;;;;5052170;28;20037;-71
2022/02/07 09:35:17;;;;;;;14.98;2.20;;;4.20;99.90;;;;;;5051384;28;20071;-71
2022/02/07 09:37:43;;;;;;;7.78;1.27;;;4.10;99.90;;;;;;5052145;28;20079;-71
2022/02/07 09:40:10;;;;;;;10.63;1.65;;;4.20;99.90;;;;;;5051732;28;20045;-72
2022/02/07 09:42:41;;;;;;;8.43;1.30;;;4.10;99.90;;;;;;5050132;28;20087;-71
2022/02/07 09:45:14;;;;;;;7.80;1.60;;;4.10;99.90;;;;;;5050784;28;20112;-70
2022/02/07 09:47:41;;;;;;;5.35;1.00;;;4.10;99.90;;;;;;5051177;28;20466;-70
2022/02/07 09:50:07;;;;;;;8.27;1.35;;;4.20;99.90;;;;;;5050885;28;20033;-71
2022/02/07 09:52:34;;;;;;;9.32;1.42;;;4.20;99.90;;;;;;5052245;28;20067;-70
2022/02/07 09:55:00;;;;;;;10.35;1.90;;;4.20;99.90;;;;;;5058308;28;20159;-70
2022/02/07 09:57:26;;;;;;;10.98;1.80;;;4.30;99.90;;;;;;5050367;28;20060;-71
2022/02/07 09:59:53;;;;;;;12.35;1.33;;;4.40;99.90;;;;;;5041623;28;20037;-70
2022/02/07 10:02:31;;;;;;;9.15;1.23;;;4.60;99.90;;;;;;5049597;28;20159;-71
2022/02/07 10:05:04;;;;;;;5.55;1.10;;;4.70;99.90;;;;;;5051375;28;20036;-71
2022/02/07 10:07:40;;;;;;;6.65;1.13;;;4.80;99.90;;;;;;5051273;28;20025;-70
2022/02/07 10:10:27;;;;;;;12.95;2.35;;;4.90;99.90;;;;;;5050577;28;20033;-72
2022/02/07 10:15:35;;;;;;;7.00;1.30;;;5.10;99.90;;;;;;5051041;28;20025;-72
2022/02/07 10:18:39;;;;;;;5.97;1.20;;;5.10;99.90;;;;;;5051703;28;20036;-71
2022/02/07 10:40:53;;;;;;;6.78;1.10;;;5.70;99.90;;;;;;5035320;28;20044;-73
2022/02/07 10:43:29;;;;;;;10.68;1.27;;;5.60;99.90;;;;;;5042585;28;20029;-73
2022/02/07 10:46:09;;;;;;;9.45;1.50;;;5.50;99.90;;;;;;5051393;28;20033;-73
2022/02/07 10:48:42;;;;;;;8.05;1.50;;;5.50;99.90;;;;;;5047648;28;20160;-73
2022/02/07 10:51:11;;;;;;;11.48;1.50;;;5.30;99.90;;;;;;5039982;28;20040;-73
2022/02/07 10:53:39;;;;;;;9.30;1.00;;;5.20;99.90;;;;;;5050917;28;20025;-73
2022/02/07 10:56:06;;;;;;;9.35;1.10;;;5.10;99.90;;;;;;5038444;28;20585;-72
2022/02/07 10:58:32;;;;;;;5.78;0.90;;;5.00;99.90;;;;;;5038652;28;20029;-73
2022/02/07 11:01:08;;;;;;;5.75;1.45;;;5.00;99.90;;;;;;5065598;28;20474;-72
2022/02/07 11:03:41;;;;;;;9.57;1.55;;;5.00;99.90;;;;;;5046621;28;20033;-72
2022/02/07 11:06:09;;;;;;;6.90;1.00;;;5.10;99.90;;;;;;5035098;28;20021;-73
2022/02/07 11:11:44;;;;;;;6.85;1.25;;;5.50;99.90;;;;;;5043464;28;20025;-72
2022/02/07 11:22:47;;;;;;;9.23;1.17;;;5.90;99.90;;;;;;5051836;28;20088;-74
2022/02/07 11:27:53;;;;;;;10.75;1.77;;;5.90;99.70;;;;;;5054196;28;20424;-74
2022/02/07 11:30:42;;;;;;;9.07;1.30;;;6.00;99.90;;;;;;5069608;28;20029;-76
2022/02/07 11:33:33;;;;;;;6.00;1.13;;;5.90;99.40;;;;;;5054147;28;20029;-75
2022/02/07 11:36:00;;;;;;;8.45;1.13;;;5.90;99.90;;;;;;5052365;28;20377;-75
2022/02/07 11:38:26;;;;;;;3.95;0.90;;;5.90;99.30;;;;;;5053472;28;20128;-71
2022/02/07 11:40:59;;;;;;;7.10;1.27;;;5.70;99.30;;;;;;5053502;28;20108;-70
2022/02/07 11:43:29;;;;;;;10.57;1.27;;;5.70;99.90;;;;;;5055576;28;20029;-69
2022/02/07 11:46:21;;;;;;;7.13;1.20;;;5.60;99.90;;;;;;5053970;28;20031;-69
2022/02/07 11:48:52;;;;;;;6.75;1.65;;;5.60;99.90;;;;;;5047175;28;20033;-69
2022/02/07 11:51:18;;;;;;;8.25;1.40;;;5.60;99.90;;;;;;5037497;28;20026;-70
2022/02/07 11:54:06;;;;;;;4.57;1.00;;;5.50;99.90;;;;;;5047412;28;20079;-70
2022/02/07 12:02:04;;;;;;;10.93;2.58;;;5.40;99.90;;;;;;5052921;28;20541;-69
2022/02/07 12:04:38;;;;;;;11.27;1.40;;;5.40;99.90;;;;;;5036214;28;20130;-69
2022/02/07 12:07:07;;;;;;;7.43;1.15;;;5.40;99.90;;;;;;5033592;28;20037;-70
2022/02/07 12:09:35;;;;;;;5.43;0.88;;;5.40;99.90;;;;;;5045780;28;20036;-70
2022/02/07 12:12:01;;;;;;;10.93;2.15;;;5.40;99.90;;;;;;5053199;28;20094;-70
2022/02/07 12:14:35;;;;;;;5.63;1.10;;;5.30;99.90;;;;;;5036659;28;20060;-70
2022/02/07 12:17:02;;;;;;;12.80;1.17;;;5.20;99.90;;;;;;5045897;28;20025;-69
2022/02/07 12:19:39;;;;;;;11.93;1.50;;;5.20;99.90;;;;;;5052206;28;20033;-70
2022/02/07 12:22:16;;;;;;;7.72;1.70;;;5.20;99.90;;;;;;5052584;28;20437;-70
2022/02/07 12:24:58;;;;;;;10.77;1.65;;;5.30;99.90;;;;;;5035614;28;20040;-70
2022/02/07 12:27:26;;;;;;;10.00;1.10;;;5.30;99.90;;;;;;5032850;28;20025;-70
2022/02/07 12:32:53;;;;;;;3.92;1.05;;;5.30;99.90;;;;;;5065960;28;20834;-71
2022/02/07 12:35:23;;;;;;;9.00;1.40;;;5.40;99.90;;;;;;5037798;28;20167;-69
2022/02/07 12:37:49;;;;;;;;;;;5.50;99.90;;;;;;5052987;28;20089;-70
2022/02/07 12:40:14;;;;;;;6.40;1.17;;;5.60;99.90;;;;;;5051958;28;19999;-68
2022/02/07 12:42:41;;;;;;;5.60;1.35;;;5.70;99.90;;;;;;5052130;28;20107;-70
2022/02/07 12:45:07;;;;;;;6.30;1.33;;;5.80;99.90;;;;;;5047003;28;20091;-70
2022/02/07 12:47:35;;;;;;;7.93;1.38;;;5.80;99.90;;;;;;5031425;28;20087;-70
2022/02/07 12:50:14;;;;;;;11.20;1.70;;;5.90;99.90;;;;;;5036398;28;20029;-70
2022/02/07 12:52:40;;;;;;;8.23;1.47;;;6.00;99.90;;;;;;5052254;28;20029;-70
2022/02/07 12:55:08;;;;;;;14.57;2.00;;;6.10;99.90;;;;;;5047349;28;20120;-69
2022/02/07 12:57:38;;;;;;;9.80;1.33;;;6.20;99.90;;;;;;5031433;28;20152;-69
2022/02/07 13:00:06;;;;;;;7.97;1.38;;;6.30;99.90;;;;;;5046451;28;20037;-69
2022/02/07 13:02:32;;;;;;;11.60;2.08;;;6.30;99.90;;;;;;5051031;28;20116;-69
2022/02/07 13:04:57;;;;;;;7.85;1.52;;;6.40;99.90;;;;;;5051650;28;20071;-69
2022/02/07 13:07:26;;;;;;;11.38;1.65;;;6.30;99.90;;;;;;5051312;28;20540;-69
2022/02/07 13:09:56;;;;;;;9.40;1.80;;;6.30;99.90;;;;;;5051861;28;20036;-69
2022/02/07 13:12:39;;;;;;;;;;;6.20;99.90;;;;;;5051814;28;20029;-69
2022/02/07 13:15:12;;;;;;;10.07;1.70;;;6.20;99.90;;;;;;5051886;28;20424;-69
2022/02/07 13:17:38;;;;;;;7.70;1.20;;;6.20;99.90;;;;;;5048780;28;20102;-69
2022/02/07 13:20:07;;;;;;;5.78;1.67;;;6.10;99.90;;;;;;5048139;28;20466;-70
2022/02/07 13:22:32;;;;;;;6.78;1.27;;;5.90;99.90;;;;;;5051982;28;20041;-71
2022/02/07 13:24:58;;;;;;;12.85;1.67;;;5.80;99.90;;;;;;5051920;28;20104;-69
2022/02/07 13:27:24;;;;;;;12.50;1.60;;;5.70;99.90;;;;;;5050353;28;20033;-69
2022/02/07 13:29:54;;;;;;;8.75;1.15;;;5.60;99.90;;;;;;5063710;28;20029;-69
2022/02/07 13:32:26;;;;;;;9.95;1.98;;;5.60;99.90;;;;;;5070984;28;20037;-69
2022/02/07 13:35:07;;;;;;;6.97;1.52;;;5.70;99.90;;;;;;5061667;28;20371;-69
2022/02/07 13:37:36;;;;;;;7.18;1.40;;;5.80;99.90;;;;;;5050796;28;20041;-69
2022/02/07 13:40:24;;;;;;;5.05;1.10;;;5.80;99.90;;;;;;5050628;28;20025;-69
2022/02/07 13:42:51;;;;;;;7.30;1.20;;;5.90;99.90;;;;;;5051609;28;20040;-69
2022/02/07 13:45:20;;;;;;;7.43;1.23;;;5.80;99.90;;;;;;5050577;28;20025;-69
2022/02/07 13:47:49;;;;;;;5.20;1.13;;;5.90;99.90;;;;;;5051350;28;20021;-69
2022/02/07 13:50:18;;;;;;;6.37;1.87;;;6.00;99.90;;;;;;5051065;28;20029;-69
2022/02/07 13:52:46;;;;;;;7.68;1.27;;;6.20;99.90;;;;;;5051434;28;20025;-69
2022/02/07 13:55:28;;;;;;;7.93;1.55;;;6.20;99.90;;;;;;5051604;28;20028;-70
2022/02/07 13:58:00;;;;;;;6.60;1.38;;;6.30;99.90;;;;;;5050587;28;20037;-70
2022/02/07 14:00:38;;;;;;;5.90;1.40;;;6.20;99.90;;;;;;5067517;28;20555;-69
2022/02/07 14:03:08;;;;;;;7.38;1.45;;;6.20;99.90;;;;;;5054157;28;20040;-69
2022/02/07 14:05:35;;;;;;;;;;;6.20;99.90;;;;;;5050694;28;20064;-69
2022/02/07 14:08:02;;;;;;;8.57;1.20;;;6.20;99.90;;;;;;5045230;28;19917;-69
2022/02/07 14:10:34;;;;;;;11.68;1.40;;;6.20;99.90;;;;;;5049373;28;20462;-69
2022/02/07 14:13:00;;;;;;;5.28;1.25;;;6.30;99.90;;;;;;5050359;28;20033;-69
2022/02/07 14:15:26;;;;;;;11.27;1.35;;;6.30;99.90;;;;;;5050385;28;20123;-69
2022/02/07 14:17:51;;;;;;;8.32;1.58;;;6.30;99.90;;;;;;5050771;28;20488;-69
2022/02/07 14:20:29;;;;;;;4.65;0.98;;;6.30;99.90;;;;;;5050545;28;20378;-69
2022/02/07 14:22:54;;;;;;;8.80;1.50;;;6.20;99.90;;;;;;5051073;28;20040;-69
2022/02/07 14:25:26;;;;;;;6.05;1.00;;;6.20;99.90;;;;;;5050180;28;20029;-69
2022/02/07 14:27:51;;;;;;;8.55;1.30;;;6.10;99.90;;;;;;5050590;28;20033;-70
2022/02/07 14:30:17;;;;;;;7.07;1.30;;;6.00;99.90;;;;;;5067774;28;20039;-69
2022/02/07 14:32:43;;;;;;;10.10;1.48;;;6.00;99.90;;;;;;5054148;28;20036;-69
2022/02/07 14:35:09;;;;;;;5.30;0.98;;;6.00;99.90;;;;;;5054484;28;20518;-70
2022/02/07 14:37:35;;;;;;;6.20;1.27;;;6.00;99.90;;;;;;5054447;28;20055;-69
2022/02/07 14:40:00;;;;;;;6.53;1.65;;;6.10;99.90;;;;;;5054900;28;20474;-69
2022/02/07 14:42:26;;;;;;;3.22;1.08;;;6.20;99.90;;;;;;5053830;28;20040;-69
2022/02/07 14:47:51;;;;;;;4.43;1.23;;;6.30;99.90;;;;;;5052885;28;20059;-69
2022/02/07 14:50:23;;;;;;;11.52;1.88;;;6.20;99.90;;;;;;5054679;28;20166;-69
2022/02/07 14:52:50;;;;;;;5.88;1.30;;;6.30;99.90;;;;;;5054846;28;20036;-69
2022/02/07 14:55:17;;;;;;;9.77;1.40;;;6.20;99.90;;;;;;5054239;28;20029;-70
2022/02/07 14:57:43;;;;;;;9.88;1.88;;;6.20;99.90;;;;;;5053323;28;20060;-78
2022/02/07 15:00:13;;;;;;;10.10;1.95;;;6.30;99.90;;;;;;5061995;28;20021;-73
2022/02/07 15:02:39;;;;;;;5.05;1.17;;;6.30;99.90;;;;;;5053348;28;20636;-72
2022/02/07 15:05:05;;;;;;;6.13;1.60;;;6.20;99.90;;;;;;5054609;28;20033;-73
2022/02/07 15:07:31;;;;;;;6.97;1.35;;;6.10;99.90;;;;;;5053623;28;20037;-73
2022/02/07 15:09:57;;;;;;;7.38;1.30;;;6.00;99.90;;;;;;5054297;28;20032;-73
2022/02/07 15:12:23;;;;;;;7.10;1.38;;;5.90;99.90;;;;;;5053263;28;20033;-72
2022/02/07 15:14:51;;;;;;;6.05;1.17;;;5.70;99.90;;;;;;5054206;28;20029;-73
2022/02/07 15:17:21;;;;;;;10.48;1.70;;;5.50;99.90;;;;;;5054361;28;20377;-72
2022/02/07 15:19:47;;;;;;;6.82;1.48;;;5.30;99.90;;;;;;5053231;28;20036;-72
2022/02/07 15:22:13;;;;;;;8.32;1.70;;;5.20;99.90;;;;;;5054022;28;20044;-72
2022/02/07 15:24:39;;;;;;;13.07;2.10;;;5.10;99.90;;;;;;5053635;28;20066;-72
2022/02/07 15:27:09;;;;;;;6.63;1.50;;;5.00;99.90;;;;;;5054230;28;20059;-72
2022/02/07 15:29:34;;;;;;;10.65;1.90;;;4.90;99.90;;;;;;5063216;28;20020;-72
2022/02/07 15:35:03;;;;;;;11.48;1.58;;;4.90;99.90;;;;;;5029480;28;20038;-73
2022/02/07 15:37:32;;;;;;;7.65;1.52;;;4.90;99.90;;;;;;5045128;28;20040;-72
2022/02/07 15:39:58;;;;;;;17.65;2.15;;;4.80;99.90;;;;;;5053411;28;20036;-72
2022/02/07 15:42:24;;;;;;;10.35;1.73;;;4.70;99.90;;;;;;5052595;28;20037;-72
2022/02/07 15:44:52;;;;;;;8.85;1.50;;;4.70;99.90;;;;;;5053678;28;20033;-73
2022/02/07 15:47:18;;;;;;;13.00;1.63;;;4.60;99.90;;;;;;5053473;28;20098;-73